O'Leary, Canada
Current Conditions -  °F | °C
As of 8:19 PM on Monday 20 Oct 2014 (Local Time) from CYQM Reporting Station
Few Clouds Few Clouds  
Wind Chill: 30°   Ceiling: Unl
Heat Index: 36°   Visibility: 15mi
Dew Point: 27°   Wind: 7mph
Humidity: 70%   Direction: 210°SSW
Pressure: 29.87"   Gusts: NA
Location:  46.7°N, 64.22°W
Report Text: CYQM 202319Z 21006KT 15SM FEW220 02/M03 A2987 RMK CI2 SLP117
Loading
Personal Weather Stations






























Interactive Weather Map
Tropical Storm Tracking
New forecast layout! Learn more

10-Day Weather Forecast

Advertisements
Track Severe Weather on mobile